Time;durP1;ratioP1;P1;durP2;ratioP2;P2;SDS_P1;SDS_P2;PMS_P1;PMS_P2;Temp;Humidity;BMP_temperature;BMP_pressure;BME280_temperature;BME280_humidity;BME280_pressure;Samples;Min_cycle;Max_cycle;Signal;HPM_P1;HPM_P2
2021/04/25 00:00:46;;;;;;;14.90;11.50;;;11.40;99.00;;;;;;5036504;28;20521;-53
2021/04/25 00:03:12;;;;;;;17.80;10.77;;;11.40;99.20;;;;;;5051860;28;20451;-54
2021/04/25 00:05:39;;;;;;;14.83;10.10;;;11.00;99.90;;;;;;5051803;28;20482;-53
2021/04/25 00:08:06;;;;;;;22.63;11.63;;;10.90;99.90;;;;;;5051886;28;20481;-53
2021/04/25 00:10:32;;;;;;;14.87;10.40;;;10.80;99.90;;;;;;5050960;28;20476;-53
2021/04/25 00:13:00;;;;;;;14.80;10.27;;;10.70;99.90;;;;;;5051762;28;20461;-53
2021/04/25 00:15:27;;;;;;;16.10;11.00;;;10.80;99.90;;;;;;5051121;28;20517;-53
2021/04/25 00:17:54;;;;;;;15.67;10.77;;;10.80;99.90;;;;;;5050099;28;20975;-53
2021/04/25 00:20:22;;;;;;;14.93;10.70;;;10.80;99.90;;;;;;5048964;28;20459;-54
2021/04/25 00:22:48;;;;;;;15.87;12.17;;;10.80;99.90;;;;;;5050301;28;20477;-54
2021/04/25 00:25:16;;;;;;;17.03;12.40;;;10.70;99.90;;;;;;5039097;28;20867;-53
2021/04/25 00:27:44;;;;;;;17.70;11.83;;;10.70;99.90;;;;;;5051731;28;20447;-54
2021/04/25 00:30:14;;;;;;;20.17;11.77;;;10.70;99.90;;;;;;5050602;28;20458;-53
2021/04/25 00:32:44;;;;;;;20.30;12.10;;;10.70;99.90;;;;;;5050371;28;20456;-53
2021/04/25 00:35:11;;;;;;;16.10;11.77;;;10.80;99.90;;;;;;5051930;28;20861;-53
2021/04/25 00:37:41;;;;;;;17.63;11.73;;;10.80;99.90;;;;;;5038888;28;20448;-53
2021/04/25 00:40:10;;;;;;;14.73;11.53;;;10.70;99.90;;;;;;5046751;28;20898;-53
2021/04/25 00:42:37;;;;;;;14.60;10.90;;;10.70;99.90;;;;;;5051275;28;20486;-53
2021/04/25 00:45:06;;;;;;;20.50;11.80;;;10.60;99.90;;;;;;5051073;28;20476;-53
2021/04/25 00:47:37;;;;;;;23.90;12.30;;;10.60;99.90;;;;;;5051135;28;20995;-53
2021/04/25 00:50:05;;;;;;;15.90;10.77;;;10.60;99.90;;;;;;5050716;28;20605;-53
2021/04/25 00:52:34;;;;;;;17.53;11.50;;;10.60;99.90;;;;;;5051461;28;20472;-53
2021/04/25 00:55:01;;;;;;;22.77;13.10;;;10.10;99.90;;;;;;5051302;28;20448;-53
2021/04/25 00:57:27;;;;;;;17.30;12.07;;;10.20;99.90;;;;;;5051393;28;20452;-53
2021/04/25 00:59:55;;;;;;;17.37;11.90;;;10.20;99.90;;;;;;5050734;28;20972;-53
2021/04/25 01:02:22;;;;;;;19.00;12.20;;;10.30;99.90;;;;;;5051013;28;20471;-53
2021/04/25 01:04:49;;;;;;;16.07;11.40;;;10.40;99.90;;;;;;5051452;28;20513;-53
2021/04/25 01:07:15;;;;;;;18.40;12.70;;;10.50;99.90;;;;;;5051512;28;20455;-53
2021/04/25 01:09:42;;;;;;;15.50;10.90;;;10.40;99.90;;;;;;5049501;28;20448;-53
2021/04/25 01:12:09;;;;;;;17.90;12.40;;;10.50;99.90;;;;;;5050979;28;20468;-54
2021/04/25 01:14:36;;;;;;;14.57;11.03;;;10.50;99.90;;;;;;5045241;28;20448;-53
2021/04/25 01:17:03;;;;;;;16.30;11.70;;;10.60;99.90;;;;;;5049515;28;20874;-53
2021/04/25 01:19:30;;;;;;;16.60;11.83;;;10.50;99.90;;;;;;5050052;28;20458;-53
2021/04/25 01:21:57;;;;;;;18.70;12.57;;;10.30;99.90;;;;;;5050874;28;20475;-53
2021/04/25 01:24:24;;;;;;;17.57;12.40;;;10.30;99.90;;;;;;5051166;28;20827;-53
2021/04/25 01:26:50;;;;;;;16.97;11.73;;;10.30;99.90;;;;;;5051022;28;20887;-53
2021/04/25 01:29:17;;;;;;;16.70;11.20;;;10.30;99.90;;;;;;5050505;28;20821;-53
2021/04/25 01:31:43;;;;;;;19.43;12.53;;;10.30;99.90;;;;;;5050690;28;20537;-53
2021/04/25 01:34:10;;;;;;;20.97;13.17;;;10.30;99.90;;;;;;5049950;28;20957;-53
2021/04/25 01:36:36;;;;;;;21.50;12.87;;;10.20;99.90;;;;;;5050629;28;20460;-53
2021/04/25 01:39:05;;;;;;;21.50;13.50;;;10.20;99.90;;;;;;5050601;28;20500;-53
2021/04/25 01:41:32;;;;;;;20.90;13.17;;;10.20;99.90;;;;;;5050630;28;21066;-53
2021/04/25 01:43:58;;;;;;;21.37;13.80;;;10.10;99.90;;;;;;5051315;28;20824;-53
2021/04/25 01:46:25;;;;;;;16.30;11.43;;;10.20;99.90;;;;;;5049588;28;20498;-51
2021/04/25 01:48:51;;;;;;;18.80;12.77;;;10.20;99.90;;;;;;5050793;28;21041;-51
2021/04/25 01:51:18;;;;;;;17.87;12.27;;;9.90;99.90;;;;;;5050483;28;20467;-53
2021/04/25 01:53:44;;;;;;;17.90;12.67;;;9.50;99.90;;;;;;5050590;28;20963;-53
2021/04/25 01:56:12;;;;;;;15.60;11.33;;;9.30;99.90;;;;;;5050502;28;20451;-53
2021/04/25 01:58:38;;;;;;;17.00;11.50;;;9.30;99.90;;;;;;5050158;28;20941;-53
2021/04/25 02:01:06;;;;;;;15.50;10.93;;;9.50;99.90;;;;;;5046027;28;20468;-53
2021/04/25 02:03:32;;;;;;;17.60;10.23;;;9.60;99.90;;;;;;5034848;28;20450;-53
2021/04/25 02:05:59;;;;;;;14.07;9.50;;;9.70;99.90;;;;;;5053937;28;20486;-53
2021/04/25 02:08:25;;;;;;;13.50;9.20;;;9.80;99.90;;;;;;5053971;28;20458;-53
2021/04/25 02:10:53;;;;;;;15.47;10.17;;;9.90;99.90;;;;;;5071455;28;20473;-53
2021/04/25 02:13:21;;;;;;;15.00;9.43;;;9.80;99.90;;;;;;5054936;28;20467;-53
2021/04/25 02:15:47;;;;;;;13.00;9.30;;;9.80;99.90;;;;;;5054002;28;20960;-53
2021/04/25 02:18:14;;;;;;;12.80;8.90;;;9.90;99.90;;;;;;5054174;28;20941;-53
2021/04/25 02:20:40;;;;;;;15.37;8.93;;;9.90;99.90;;;;;;5060672;28;20470;-53
2021/04/25 02:23:07;;;;;;;15.67;9.43;;;9.80;99.90;;;;;;5053669;28;20451;-54
2021/04/25 02:25:34;;;;;;;14.30;9.40;;;9.80;99.90;;;;;;5053434;28;20482;-53
2021/04/25 02:28:00;;;;;;;13.37;9.03;;;9.80;99.90;;;;;;5053226;28;20537;-53
2021/04/25 02:30:30;;;;;;;16.10;9.07;;;9.70;99.90;;;;;;5053321;28;20447;-53
2021/04/25 02:32:57;;;;;;;18.30;10.07;;;9.90;99.90;;;;;;5052865;28;20452;-53
2021/04/25 02:35:24;;;;;;;23.00;10.30;;;9.80;99.90;;;;;;5049453;28;20441;-53
2021/04/25 02:37:51;;;;;;;15.80;9.40;;;9.70;99.90;;;;;;5048647;28;20451;-53
2021/04/25 02:40:21;;;;;;;11.70;8.47;;;9.80;99.90;;;;;;5053263;28;20461;-53
2021/04/25 02:42:48;;;;;;;13.03;8.80;;;9.80;99.90;;;;;;5053919;28;20451;-53
2021/04/25 02:45:16;;;;;;;13.30;9.23;;;9.70;99.90;;;;;;5053819;28;20487;-53
2021/04/25 02:47:46;;;;;;;14.50;9.40;;;9.60;99.90;;;;;;5053542;28;20504;-53
2021/04/25 02:50:14;;;;;;;17.87;8.80;;;9.50;99.90;;;;;;5052982;28;21025;-53
2021/04/25 02:52:44;;;;;;;12.17;8.60;;;9.50;99.90;;;;;;5052628;28;20512;-53
2021/04/25 02:55:12;;;;;;;14.03;8.63;;;9.50;99.90;;;;;;5043480;28;20478;-53
2021/04/25 02:57:40;;;;;;;12.80;7.87;;;9.40;99.90;;;;;;5033402;28;20500;-54
2021/04/25 03:00:09;;;;;;;13.90;8.60;;;9.40;99.90;;;;;;5050665;28;20818;-53
2021/04/25 03:02:36;;;;;;;13.97;8.30;;;9.50;99.90;;;;;;5053570;28;20451;-53
2021/04/25 03:05:04;;;;;;;16.70;8.93;;;9.40;99.90;;;;;;5052688;28;20490;-53
2021/04/25 03:07:30;;;;;;;15.53;7.73;;;9.40;99.90;;;;;;5053064;28;20819;-53
2021/04/25 03:09:57;;;;;;;13.43;7.30;;;9.40;99.90;;;;;;5053156;28;20520;-53
2021/04/25 03:12:23;;;;;;;12.10;7.80;;;9.50;99.90;;;;;;5044217;28;20508;-53
2021/04/25 03:14:50;;;;;;;14.50;7.93;;;9.60;99.90;;;;;;5052872;28;20447;-53
2021/04/25 03:17:16;;;;;;;12.50;7.10;;;9.60;99.90;;;;;;5053016;28;20902;-52
2021/04/25 03:19:43;;;;;;;15.43;8.30;;;9.80;99.90;;;;;;5052889;28;20451;-53
2021/04/25 03:22:10;;;;;;;15.37;8.73;;;9.70;99.90;;;;;;5052448;28;20471;-53
2021/04/25 03:24:37;;;;;;;16.20;8.00;;;9.60;99.90;;;;;;5052557;28;20453;-52
2021/04/25 03:27:04;;;;;;;11.73;7.47;;;9.70;99.90;;;;;;5052997;28;20452;-53
2021/04/25 03:29:31;;;;;;;11.00;7.33;;;9.80;99.90;;;;;;5052578;28;20512;-53
2021/04/25 03:31:58;;;;;;;14.70;8.50;;;9.80;99.90;;;;;;5052509;28;20483;-53
2021/04/25 03:34:24;;;;;;;20.47;8.40;;;9.70;99.90;;;;;;5052878;28;20521;-53
2021/04/25 03:36:51;;;;;;;16.13;8.00;;;9.70;99.90;;;;;;5053082;28;20457;-53
2021/04/25 03:39:18;;;;;;;13.73;8.07;;;9.70;99.90;;;;;;5052238;28;20565;-55
2021/04/25 03:41:45;;;;;;;15.17;7.83;;;9.60;99.90;;;;;;5052107;28;20876;-53
2021/04/25 03:44:14;;;;;;;15.07;8.57;;;9.50;99.90;;;;;;5052636;28;21015;-53
2021/04/25 03:46:40;;;;;;;14.90;8.07;;;9.10;99.90;;;;;;5051633;28;20481;-53
2021/04/25 03:49:07;;;;;;;14.40;7.60;;;9.20;99.90;;;;;;5032977;28;20463;-53
2021/04/25 03:51:33;;;;;;;12.80;7.10;;;9.30;99.90;;;;;;5052260;28;20479;-53
2021/04/25 03:54:00;;;;;;;13.60;7.83;;;9.30;99.90;;;;;;5052528;28;20454;-53
2021/04/25 03:56:28;;;;;;;14.30;7.30;;;9.50;99.90;;;;;;5052504;28;20458;-53
2021/04/25 03:58:54;;;;;;;16.03;7.90;;;9.60;99.90;;;;;;5051854;28;20462;-53
2021/04/25 04:01:21;;;;;;;11.20;7.70;;;9.60;99.90;;;;;;5052019;28;20494;-53
2021/04/25 04:03:48;;;;;;;15.27;8.50;;;9.50;99.90;;;;;;5052277;28;20971;-53
2021/04/25 04:06:14;;;;;;;11.83;7.83;;;9.10;99.90;;;;;;5051544;28;20482;-53
2021/04/25 04:08:41;;;;;;;15.60;7.53;;;9.10;99.90;;;;;;5051536;28;20446;-53
2021/04/25 04:11:08;;;;;;;14.17;8.23;;;9.30;99.90;;;;;;5051324;28;20550;-53
2021/04/25 04:13:35;;;;;;;13.87;7.30;;;9.20;99.90;;;;;;5052135;28;20497;-53
2021/04/25 04:16:02;;;;;;;16.47;7.57;;;9.10;99.90;;;;;;5052219;28;20450;-53
2021/04/25 04:18:29;;;;;;;15.33;8.20;;;9.20;99.90;;;;;;5051989;28;20497;-53
2021/04/25 04:20:55;;;;;;;13.57;7.87;;;9.00;99.90;;;;;;5051449;28;20500;-53
2021/04/25 04:23:22;;;;;;;13.47;7.83;;;9.10;99.90;;;;;;5051307;28;20451;-53
2021/04/25 04:25:49;;;;;;;14.00;8.03;;;9.20;99.90;;;;;;5051877;28;20483;-53
2021/04/25 04:28:15;;;;;;;12.63;7.83;;;9.10;99.90;;;;;;5051293;28;20458;-52
2021/04/25 04:30:43;;;;;;;14.27;8.37;;;9.20;99.90;;;;;;5051761;28;20486;-53
2021/04/25 04:33:09;;;;;;;14.00;7.70;;;9.40;99.90;;;;;;5052142;28;20454;-53
2021/04/25 04:35:36;;;;;;;10.80;7.07;;;9.50;99.90;;;;;;5051017;28;20461;-53
2021/04/25 04:38:03;;;;;;;11.70;7.77;;;9.60;99.90;;;;;;5051260;28;20517;-53
2021/04/25 04:40:30;;;;;;;13.23;7.33;;;9.60;99.90;;;;;;5051447;28;20510;-53
2021/04/25 04:42:56;;;;;;;13.87;8.10;;;9.70;99.90;;;;;;5051620;28;20478;-53
2021/04/25 04:45:23;;;;;;;16.20;8.73;;;9.50;99.90;;;;;;5051349;28;20478;-53
2021/04/25 04:47:51;;;;;;;12.57;7.43;;;9.40;99.90;;;;;;5042021;28;20455;-53
2021/04/25 04:50:19;;;;;;;11.77;7.40;;;9.50;99.90;;;;;;5040271;28;20452;-53
2021/04/25 04:52:47;;;;;;;12.13;6.80;;;9.50;99.90;;;;;;5051670;28;20507;-52
2021/04/25 04:55:16;;;;;;;12.90;7.70;;;9.60;99.90;;;;;;5051086;28;20450;-52
2021/04/25 04:57:45;;;;;;;12.67;7.60;;;9.80;99.90;;;;;;5051313;28;20444;-53
2021/04/25 05:00:13;;;;;;;14.37;8.50;;;9.90;99.90;;;;;;5050680;28;20462;-52
2021/04/25 05:02:42;;;;;;;13.20;7.70;;;9.80;99.90;;;;;;5048613;28;20462;-52
2021/04/25 05:05:11;;;;;;;18.17;7.30;;;9.80;99.90;;;;;;5050078;28;20578;-53
2021/04/25 05:07:38;;;;;;;14.77;8.40;;;9.40;99.90;;;;;;5049033;28;20463;-53
2021/04/25 05:10:06;;;;;;;12.67;7.50;;;9.60;99.90;;;;;;5036848;28;20450;-53
2021/04/25 05:12:34;;;;;;;10.10;6.10;;;9.80;99.90;;;;;;5051033;28;21019;-53
2021/04/25 05:15:01;;;;;;;12.63;7.23;;;9.90;99.90;;;;;;5050432;28;20530;-53
2021/04/25 05:17:28;;;;;;;14.57;8.27;;;10.00;99.90;;;;;;5051082;28;20443;-51
2021/04/25 05:19:55;;;;;;;12.23;8.40;;;10.10;99.90;;;;;;5049565;28;20917;-51
2021/04/25 05:22:22;;;;;;;13.80;8.60;;;10.10;99.90;;;;;;5047312;28;20502;-51
2021/04/25 05:24:49;;;;;;;12.73;8.20;;;10.30;99.90;;;;;;5035460;28;20471;-51
2021/04/25 05:27:16;;;;;;;11.83;6.20;;;9.90;99.90;;;;;;5040333;28;20461;-53
2021/04/25 05:29:43;;;;;;;13.20;6.27;;;9.40;99.90;;;;;;5049706;28;20457;-53
2021/04/25 05:32:09;;;;;;;12.30;6.70;;;9.30;99.90;;;;;;5049533;28;20478;-53
2021/04/25 05:34:36;;;;;;;11.63;7.33;;;9.40;99.90;;;;;;5051616;28;20455;-53
2021/04/25 05:37:03;;;;;;;12.37;7.37;;;9.50;99.90;;;;;;5054381;28;20458;-53
2021/04/25 05:39:31;;;;;;;15.03;6.73;;;10.00;99.90;;;;;;5054681;28;20450;-52
2021/04/25 05:41:58;;;;;;;15.50;6.87;;;9.80;99.90;;;;;;5054977;28;20525;-52
2021/04/25 05:44:27;;;;;;;11.63;5.90;;;10.20;99.90;;;;;;5054315;28;20733;-53
2021/04/25 05:46:53;;;;;;;12.43;6.20;;;10.40;99.90;;;;;;5054304;28;20910;-52
2021/04/25 05:49:20;;;;;;;14.93;6.30;;;10.90;99.90;;;;;;5079645;22;20485;-48
2021/04/25 05:51:47;;;;;;;9.80;6.57;;;10.90;99.90;;;;;;5072014;28;20458;-48
2021/04/25 05:54:13;;;;;;;13.33;6.60;;;11.20;99.90;;;;;;5073120;28;20450;-49
2021/04/25 05:56:41;;;;;;;12.60;7.40;;;11.80;99.90;;;;;;5073072;28;20970;-49
2021/04/25 05:59:08;;;;;;;12.97;8.53;;;12.30;99.90;;;;;;5072186;28;20450;-51
2021/04/25 06:01:35;;;;;;;11.17;7.30;;;12.80;99.90;;;;;;5064340;28;20898;-52
2021/04/25 06:04:01;;;;;;;14.93;8.50;;;13.20;99.90;;;;;;5064227;28;20474;-52
2021/04/25 06:06:30;;;;;;;11.70;7.43;;;13.20;99.70;;;;;;5066136;28;20856;-52
2021/04/25 06:08:58;;;;;;;11.50;8.10;;;13.90;99.80;;;;;;5060529;28;20505;-53
2021/04/25 06:11:25;;;;;;;15.40;8.40;;;14.60;98.80;;;;;;5069604;28;20960;-52
2021/04/25 06:13:52;;;;;;;14.30;8.10;;;15.10;97.40;;;;;;5070794;28;20450;-52
2021/04/25 06:16:19;;;;;;;16.30;7.70;;;14.90;95.40;;;;;;5053494;28;20497;-51
2021/04/25 06:18:46;;;;;;;15.30;7.20;;;13.80;95.20;;;;;;5012008;28;21085;-50
2021/04/25 06:21:13;;;;;;;12.50;6.27;;;12.90;96.00;;;;;;5008022;28;20481;-50
2021/04/25 06:23:41;;;;;;;9.60;6.13;;;12.20;96.40;;;;;;5002463;28;20492;-51
2021/04/25 06:26:09;;;;;;;12.77;6.70;;;12.40;96.90;;;;;;5009093;28;20493;-51
2021/04/25 06:28:35;;;;;;;14.43;6.77;;;13.20;96.40;;;;;;4997940;28;20450;-51
2021/04/25 06:31:03;;;;;;;9.20;6.30;;;13.70;97.10;;;;;;4994415;28;20466;-51
2021/04/25 06:33:30;;;;;;;8.47;5.90;;;14.50;94.10;;;;;;5012022;28;20507;-52
2021/04/25 06:35:57;;;;;;;14.33;6.10;;;15.40;93.10;;;;;;5005557;28;20462;-52
2021/04/25 06:38:24;;;;;;;10.47;6.03;;;15.40;92.30;;;;;;5001425;28;20458;-51
2021/04/25 06:40:51;;;;;;;10.30;6.10;;;15.30;91.80;;;;;;4994366;28;20558;-52
2021/04/25 06:43:18;;;;;;;11.80;5.77;;;15.20;93.20;;;;;;5003269;28;20493;-51
2021/04/25 06:45:47;;;;;;;11.83;6.30;;;15.10;92.90;;;;;;5012999;28;20481;-51
2021/04/25 06:48:15;;;;;;;11.53;6.30;;;14.60;92.90;;;;;;5012246;28;20453;-52
2021/04/25 06:50:42;;;;;;;13.43;6.47;;;14.60;92.80;;;;;;4996849;28;20549;-52
2021/04/25 06:53:08;;;;;;;13.93;6.30;;;14.40;92.10;;;;;;4994289;28;20482;-52
2021/04/25 06:55:35;;;;;;;9.90;6.37;;;14.60;92.00;;;;;;4994372;28;20974;-52
2021/04/25 06:58:02;;;;;;;10.10;6.13;;;14.70;92.40;;;;;;4994078;28;21047;-52
2021/04/25 07:00:28;;;;;;;9.70;6.10;;;14.50;91.80;;;;;;4994193;28;20474;-53
2021/04/25 07:02:56;;;;;;;10.93;5.73;;;14.50;91.90;;;;;;4993882;28;20862;-52
2021/04/25 07:05:23;;;;;;;10.47;6.67;;;14.30;92.30;;;;;;5010182;28;21021;-52
2021/04/25 07:07:50;;;;;;;11.30;6.57;;;14.20;92.20;;;;;;5004683;28;20454;-52
2021/04/25 07:10:17;;;;;;;10.33;6.47;;;14.10;92.50;;;;;;4999246;28;20477;-52
2021/04/25 07:12:48;;;;;;;12.80;6.33;;;14.60;92.00;;;;;;5004525;28;21055;-52
2021/04/25 07:15:14;;;;;;;11.73;6.90;;;15.40;91.10;;;;;;5008243;28;20451;-51
2021/04/25 07:17:41;;;;;;;9.20;5.63;;;16.00;90.50;;;;;;5006924;28;20454;-52
2021/04/25 07:20:10;;;;;;;9.53;6.33;;;16.90;88.80;;;;;;5002027;28;20470;-52
2021/04/25 07:22:38;;;;;;;9.43;6.40;;;17.60;86.60;;;;;;5012858;28;20457;-52
2021/04/25 07:25:07;;;;;;;9.20;6.23;;;17.40;86.70;;;;;;5007509;28;21041;-52
2021/04/25 07:27:34;;;;;;;10.23;7.00;;;18.20;82.90;;;;;;5004712;28;20458;-53
2021/04/25 07:30:00;;;;;;;11.00;6.70;;;18.20;83.40;;;;;;5013010;28;20473;-52
2021/04/25 07:32:27;;;;;;;11.60;6.60;;;18.50;83.70;;;;;;5012654;28;20449;-52
2021/04/25 07:34:53;;;;;;;11.83;6.90;;;18.70;84.10;;;;;;5012936;28;20512;-53
2021/04/25 07:37:20;;;;;;;10.77;7.10;;;19.20;81.30;;;;;;4997441;28;20459;-53
2021/04/25 07:39:47;;;;;;;9.10;6.17;;;19.40;84.10;;;;;;4995413;28;20541;-53
2021/04/25 07:42:15;;;;;;;10.43;6.70;;;19.50;81.10;;;;;;4993183;28;20450;-53
2021/04/25 07:44:43;;;;;;;10.40;7.33;;;19.70;78.60;;;;;;4998125;28;20582;-53
2021/04/25 07:47:10;;;;;;;13.90;6.80;;;19.50;78.40;;;;;;5007964;28;20446;-53
2021/04/25 07:49:36;;;;;;;11.23;7.27;;;19.90;77.50;;;;;;5009616;28;20474;-53
2021/04/25 07:52:04;;;;;;;10.67;6.60;;;18.60;82.80;;;;;;5012634;28;20454;-53
2021/04/25 07:54:31;;;;;;;10.40;6.90;;;18.40;83.00;;;;;;5012871;28;20472;-53
2021/04/25 07:56:58;;;;;;;12.03;7.23;;;18.90;82.50;;;;;;5008890;28;20446;-53
2021/04/25 07:59:25;;;;;;;8.80;6.50;;;17.90;82.90;;;;;;5009831;28;20473;-53
2021/04/25 08:01:51;;;;;;;13.63;7.57;;;18.60;79.20;;;;;;4996115;28;20459;-52
2021/04/25 08:04:18;;;;;;;11.50;7.30;;;19.20;78.10;;;;;;4992587;28;20842;-53
2021/04/25 08:06:45;;;;;;;10.47;7.00;;;19.70;76.80;;;;;;5003692;28;20485;-52
2021/04/25 08:09:11;;;;;;;11.73;7.70;;;19.40;76.90;;;;;;5002579;28;20478;-53
2021/04/25 08:11:38;;;;;;;11.07;7.10;;;18.40;78.80;;;;;;5000486;28;20487;-53
2021/04/25 08:14:06;;;;;;;12.33;7.50;;;19.00;79.50;;;;;;4997783;28;20462;-53
2021/04/25 08:16:32;;;;;;;11.20;6.73;;;19.80;78.00;;;;;;5004467;28;20450;-50
2021/04/25 08:18:59;;;;;;;11.23;7.03;;;20.50;77.60;;;;;;5000548;28;20889;-50
2021/04/25 08:21:26;;;;;;;12.97;7.70;;;21.10;77.40;;;;;;5001416;28;20470;-52
2021/04/25 08:23:53;;;;;;;11.20;7.77;;;20.20;77.30;;;;;;5008324;28;20454;-53
2021/04/25 08:26:21;;;;;;;9.77;7.30;;;19.40;77.70;;;;;;5010190;28;20895;-53
2021/04/25 08:28:47;;;;;;;9.03;6.90;;;18.90;81.30;;;;;;4998669;28;20533;-53
2021/04/25 08:31:15;;;;;;;11.70;7.17;;;18.70;82.70;;;;;;4998763;28;20461;-52
2021/04/25 08:33:42;;;;;;;9.60;7.03;;;19.00;80.00;;;;;;5000025;28;20513;-54
2021/04/25 08:36:09;;;;;;;12.23;8.00;;;19.00;78.20;;;;;;4994936;28;20458;-52
2021/04/25 08:38:35;;;;;;;13.03;8.00;;;18.40;77.90;;;;;;5006518;28;20462;-53
2021/04/25 08:41:04;;;;;;;12.97;7.43;;;18.40;79.10;;;;;;5002659;28;20524;-52
2021/04/25 08:43:31;;;;;;;9.93;6.80;;;19.70;78.00;;;;;;4997902;28;20458;-50
2021/04/25 08:45:59;;;;;;;11.20;6.87;;;20.40;77.30;;;;;;4997151;28;20512;-50
2021/04/25 08:48:29;;;;;;;9.60;7.50;;;20.60;75.00;;;;;;5011346;28;20461;-53
2021/04/25 08:50:57;;;;;;;10.37;7.70;;;20.50;75.80;;;;;;5005076;28;20478;-50
2021/04/25 08:53:24;;;;;;;10.30;7.20;;;20.40;76.60;;;;;;4997786;28;20450;-52
2021/04/25 08:55:51;;;;;;;12.43;8.10;;;17.80;82.70;;;;;;5008819;28;20442;-51
2021/04/25 08:58:20;;;;;;;11.63;8.10;;;16.90;85.00;;;;;;5007059;28;20454;-52
2021/04/25 09:00:46;;;;;;;13.20;7.97;;;16.60;87.60;;;;;;5011303;28;20897;-52
2021/04/25 09:03:15;;;;;;;10.60;7.70;;;17.70;84.10;;;;;;5011798;28;20457;-52
2021/04/25 09:05:43;;;;;;;10.63;7.03;;;18.70;80.40;;;;;;5004401;28;21062;-52
2021/04/25 09:08:10;;;;;;;15.97;8.10;;;18.50;82.10;;;;;;5007808;28;20461;-53
2021/04/25 09:10:38;;;;;;;14.23;8.20;;;17.20;86.30;;;;;;4994244;28;20470;-53
2021/04/25 09:13:16;;;;;;;14.50;7.67;;;17.50;84.50;;;;;;5004884;28;20452;-52
2021/04/25 09:15:43;;;;;;;14.17;7.80;;;18.30;81.50;;;;;;5008361;28;20556;-52
2021/04/25 09:18:10;;;;;;;12.40;7.87;;;19.00;81.90;;;;;;5009772;28;20445;-53
2021/04/25 09:20:44;;;;;;;13.20;8.17;;;20.10;75.80;;;;;;5014762;28;20837;-53
2021/04/25 09:23:12;;;;;;;14.27;7.50;;;20.40;76.30;;;;;;4997456;28;20909;-51
2021/04/25 09:25:39;;;;;;;12.13;7.80;;;20.50;75.70;;;;;;4997207;28;20497;-51
2021/04/25 09:28:14;;;;;;;14.07;8.80;;;19.90;76.80;;;;;;5009052;28;20445;-50
2021/04/25 09:30:55;;;;;;;13.30;8.70;;;19.40;76.40;;;;;;5014230;28;20473;-53
2021/04/25 09:33:22;;;;;;;12.97;8.37;;;19.90;75.20;;;;;;5001743;28;20535;-53
2021/04/25 09:35:50;;;;;;;12.90;8.47;;;19.50;77.30;;;;;;4999118;28;20457;-53
2021/04/25 09:38:17;;;;;;;15.73;8.80;;;19.00;79.20;;;;;;5010251;28;20450;-52
2021/04/25 09:40:45;;;;;;;13.77;8.27;;;18.60;78.60;;;;;;5007322;28;20473;-52
2021/04/25 09:43:13;;;;;;;17.13;9.57;;;18.50;78.90;;;;;;5008817;28;20545;-53
2021/04/25 09:45:40;;;;;;;11.83;8.00;;;19.60;75.00;;;;;;4995920;28;20481;-53
2021/04/25 09:48:23;;;;;;;13.63;8.50;;;19.70;78.20;;;;;;4997931;28;20458;-54
2021/04/25 09:51:11;;;;;;;13.33;8.60;;;20.30;74.10;;;;;;4995700;28;20586;-53
2021/04/25 09:53:39;;;;;;;17.00;9.27;;;19.50;77.10;;;;;;5004627;28;20477;-52
2021/04/25 09:56:07;;;;;;;15.57;9.87;;;16.80;79.70;;;;;;4997658;28;20959;-52
2021/04/25 09:58:33;;;;;;;16.23;9.80;;;16.90;81.20;;;;;;5008972;28;20545;-51
2021/04/25 10:01:00;;;;;;;15.90;9.60;;;16.90;82.60;;;;;;4995997;28;20525;-52
2021/04/25 10:03:35;;;;;;;15.77;10.20;;;17.70;83.00;;;;;;4995758;28;20462;-52
2021/04/25 10:06:04;;;;;;;15.30;9.70;;;18.00;81.40;;;;;;4997401;28;20485;-53
2021/04/25 10:08:33;;;;;;;16.83;10.40;;;17.40;79.10;;;;;;5010408;28;20537;-52
2021/04/25 10:11:02;;;;;;;18.87;10.80;;;17.00;80.80;;;;;;5017176;28;20473;-52
2021/04/25 10:13:30;;;;;;;17.00;10.23;;;17.00;81.10;;;;;;5015316;28;20507;-52
2021/04/25 10:15:56;;;;;;;18.77;10.03;;;17.70;80.70;;;;;;5013437;28;20457;-52
2021/04/25 10:18:23;;;;;;;15.60;10.37;;;18.30;79.10;;;;;;5010700;28;20449;-51
2021/04/25 10:20:51;;;;;;;17.90;10.93;;;17.90;79.60;;;;;;5009666;28;20506;-52
2021/04/25 10:23:17;;;;;;;22.50;10.57;;;18.70;76.60;;;;;;4994120;28;20450;-52
2021/04/25 10:25:45;;;;;;;17.97;11.43;;;17.80;82.80;;;;;;4997931;28;20991;-52
2021/04/25 10:28:15;;;;;;;16.80;11.73;;;17.70;83.40;;;;;;5012298;28;20454;-53
2021/04/25 10:30:43;;;;;;;20.97;11.63;;;18.80;77.50;;;;;;5001944;28;20497;-52
2021/04/25 10:33:09;;;;;;;15.27;10.63;;;18.70;82.10;;;;;;5003241;28;20808;-52
2021/04/25 10:35:36;;;;;;;18.67;11.33;;;18.10;83.20;;;;;;5000425;28;20451;-51
2021/04/25 10:38:04;;;;;;;19.43;11.73;;;18.30;80.80;;;;;;5011085;28;20495;-52
2021/04/25 10:40:34;;;;;;;15.60;10.80;;;18.90;82.20;;;;;;5005733;28;20478;-51
2021/04/25 10:43:11;;;;;;;16.03;10.70;;;19.70;81.90;;;;;;5012220;28;20457;-51
2021/04/25 10:45:56;;;;;;;20.53;11.47;;;19.40;83.50;;;;;;5013445;28;20503;-52
2021/04/25 10:48:29;;;;;;;17.50;12.07;;;19.90;78.10;;;;;;5003571;28;20450;-51
2021/04/25 10:51:03;;;;;;;16.70;11.80;;;19.40;81.00;;;;;;4994503;28;20828;-52
2021/04/25 10:53:33;;;;;;;20.03;11.27;;;19.80;80.20;;;;;;5007982;28;20853;-52
2021/04/25 10:56:29;;;;;;;18.60;12.20;;;20.30;77.60;;;;;;5013340;28;20446;-51
2021/04/25 10:59:28;;;;;;;17.30;9.83;;;19.70;86.80;;;;;;4993258;28;20447;-52
2021/04/25 11:01:59;;;;;;;17.90;11.43;;;19.20;81.90;;;;;;4993783;28;20455;-51
2021/04/25 11:05:07;;;;;;;16.13;11.43;;;19.50;80.60;;;;;;4993721;28;20465;-51
2021/04/25 11:07:45;;;;;;;18.53;11.83;;;19.60;83.80;;;;;;5005223;28;20824;-51
2021/04/25 11:10:16;;;;;;;17.20;10.47;;;19.50;82.40;;;;;;5011797;28;20469;-51
2021/04/25 11:12:46;;;;;;;17.37;11.77;;;19.40;83.10;;;;;;5002070;28;20477;-51
2021/04/25 11:15:48;;;;;;;15.00;11.50;;;19.90;80.50;;;;;;5013029;28;20496;-51
2021/04/25 11:18:53;;;;;;;18.30;11.83;;;19.50;84.50;;;;;;4993436;28;20485;-51
2021/04/25 11:21:49;;;;;;;16.20;11.70;;;19.20;82.00;;;;;;4993427;28;20500;-51
2021/04/25 11:24:37;;;;;;;25.87;12.77;;;19.20;88.90;;;;;;4993444;28;20462;-52
2021/04/25 11:27:06;;;;;;;17.83;12.10;;;18.90;85.10;;;;;;4993889;28;20493;-51
2021/04/25 11:30:04;;;;;;;16.80;11.30;;;18.60;83.80;;;;;;4993116;28;20529;-51
2021/04/25 11:32:40;;;;;;;15.53;10.90;;;18.80;83.90;;;;;;4993191;28;20482;-51
2021/04/25 11:35:13;;;;;;;19.70;12.77;;;18.80;87.40;;;;;;4993171;28;20996;-51
2021/04/25 11:37:42;;;;;;;19.33;12.90;;;18.90;85.60;;;;;;5004834;28;20457;-51
2021/04/25 11:40:10;;;;;;;16.70;12.23;;;18.30;86.10;;;;;;5012234;28;20469;-51
2021/04/25 11:42:44;;;;;;;19.73;12.10;;;18.30;86.70;;;;;;5012416;28;20442;-51
2021/04/25 11:45:13;;;;;;;19.20;11.50;;;18.10;89.60;;;;;;5012500;28;20480;-52
2021/04/25 11:47:50;;;;;;;20.30;12.80;;;18.20;87.90;;;;;;4999205;28;20458;-51
2021/04/25 11:50:18;;;;;;;22.23;12.10;;;18.30;89.50;;;;;;4993088;28;20509;-52
2021/04/25 11:52:45;;;;;;;19.17;11.57;;;18.30;90.10;;;;;;5007180;28;21003;-52
2021/04/25 11:55:14;;;;;;;20.33;12.50;;;18.40;85.70;;;;;;5012548;28;20453;-52
2021/04/25 11:57:45;;;;;;;19.70;11.10;;;18.90;81.50;;;;;;5005454;28;20458;-52
2021/04/25 12:00:14;;;;;;;20.30;11.47;;;18.80;81.80;;;;;;5009409;28;20907;-52
2021/04/25 12:02:53;;;;;;;18.93;11.90;;;18.90;83.00;;;;;;5012367;28;20446;-52
2021/04/25 12:05:21;;;;;;;18.17;11.10;;;19.20;79.70;;;;;;5012196;28;20446;-52
2021/04/25 12:07:51;;;;;;;19.33;10.23;;;19.50;80.00;;;;;;4999312;28;20460;-52
2021/04/25 12:10:25;;;;;;;15.40;10.37;;;19.80;87.00;;;;;;4992639;28;21026;-52
2021/04/25 12:13:01;;;;;;;19.30;11.40;;;19.40;83.80;;;;;;4992935;28;20525;-52
2021/04/25 12:15:28;;;;;;;16.07;11.27;;;18.80;85.70;;;;;;4992687;28;20453;-51
2021/04/25 12:17:57;;;;;;;18.20;11.60;;;18.60;84.20;;;;;;4992432;28;20450;-51
2021/04/25 12:20:25;;;;;;;18.63;11.63;;;18.60;80.80;;;;;;4992672;28;20478;-52
2021/04/25 12:22:52;;;;;;;19.50;11.70;;;18.30;83.90;;;;;;5022696;23;20485;-49
2021/04/25 12:25:18;;;;;;;19.63;11.00;;;18.40;86.40;;;;;;5012380;28;20512;-49
2021/04/25 12:27:50;;;;;;;16.10;10.20;;;18.50;79.60;;;;;;5011528;28;20545;-48
2021/04/25 12:30:19;;;;;;;13.93;9.80;;;18.10;81.10;;;;;;5010043;28;20453;-49
2021/04/25 12:32:46;;;;;;;18.60;10.50;;;18.40;81.20;;;;;;5019207;28;20464;-49
2021/04/25 12:35:24;;;;;;;14.33;9.67;;;18.60;84.10;;;;;;5027677;28;20450;-49
2021/04/25 12:37:50;;;;;;;16.23;9.93;;;18.50;83.30;;;;;;5031130;28;20459;-49
2021/04/25 12:40:30;;;;;;;16.17;9.70;;;18.60;80.70;;;;;;5031476;28;20452;-49
2021/04/25 12:43:08;;;;;;;16.75;11.10;;;18.80;76.90;;;;;;5011215;28;20442;-50